ETHF/FRZ METAR and TAF weather

Enter ICAO airport designator
Station Type Date Time Source
ETHF METAR 2021/07/28 18:20 UTC NOAA

ETHF 281820Z 20007KT 9999 FEW040 20/14 Q1011 BLU+


Station Type Date Time Source
ETHF Decoded METAR 2021/07/28 18:20 UTC NOAA

Fritzlar, Germany (ETHF) 51-07N 009-17E 181M
Jul 28, 2021 - 02:20 PM EDT / 2021.07.28 1820 UTC
Wind: from the SSW (200 degrees) at 8 MPH (7 KT):0
Visibility: greater than 7 mile(s):0
Sky conditions: mostly clear
Temperature: 68 F (20 C)
Dew Point: 57 F (14 C)
Relative Humidity: 68%
Pressure (altimeter): 29.85 in. Hg (1011 hPa)
ob: ETHF 281820Z 20007KT 9999 FEW040 20/14 Q1011 BLU+
cycle: 18

Station Type Date Time Source
ETHF TAF 2020/09/07 12:21 UTC NOAA

TAF ETHF 071611Z 0712/0802 VRB02KT 9999 NSW FEW030 PROB30 0723/0802 VRB01KT 5000 MIFG SKC

Example: see airport list